LZKZ Airport Information

Runway Information
Runway 01 Length 10171 ft width 148 ft
Elevation 739 ft Threshold 0 ft Heading 13
Runway 19 Length 10171 ft Width 148 ft
Elevation 753 ft Threshold 0 ft Heading 193
Airport Frequencies
Type APP Name APP Frequency 119.85 MHZ
Type TWR Name TWR Frequency 120.4 MHZ
Airport Navaids
Type NDB Name Kosice Frequency 425 KHZ
Type VOR-DME Name Kosice Frequency 108200 KHZ
Airport Weather Information & NOTAM
ADDS - METARS form results

(1706 UTC 13 July 2020)
Data provider http://aviationweather.gov/metar/data/
 
METAR text: LZKZ 131700Z 01012KT CAVOK 17/08 Q1021
Conditions at: LZKZ (KOSICE BARCA , SK) observed 1700 UTC 13 July 2020
Temperature: 17.0°C (63°F)
Dewpoint: 8.0°C (46°F) [RH = 55%]
Pressure (altimeter): 30.15 inches Hg (1021.0 mb)
Winds: from the N (10 degrees) at 14 MPH (12 knots; 6.2 m/s)
Visibility: 6 or more miles (10+ km)
Ceiling: ceiling and visibility are OK
Clouds: unknown
Weather: no significant weather observed at this time

METAR text: LZKZ 131630Z 01013KT CAVOK 18/08 Q1021
Conditions at: LZKZ (KOSICE BARCA , SK) observed 1630 UTC 13 July 2020
Temperature: 18.0°C (64°F)
Dewpoint: 8.0°C (46°F) [RH = 52%]
Pressure (altimeter): 30.15 inches Hg (1021.0 mb)
Winds: from the N (10 degrees) at 15 MPH (13 knots; 6.7 m/s)
Visibility: 6 or more miles (10+ km)
Ceiling: ceiling and visibility are OK
Clouds: unknown
Weather: no significant weather observed at this time

Forecast for: LZKZ (KOSICE BARCA , SK)
Text: TAF LZKZ 131700Z 1318/1418 02010KT CAVOK
Forecast period: 1800 to 2200 UTC 13 July 2020
Forecast type: FROM: standard forecast or significant change
Winds: from the NNE (20 degrees) at 12 MPH (10 knots; 5.1 m/s)
Visibility: 6 or more miles 10+ km)
Ceiling: unknown
Clouds: missing
Weather: NSW  (no significant weather)
Text: BECMG 1322/1400 VRB02KT
Forecast period: 2200 UTC 13 July 2020 to 0700 UTC 14 July 2020
Forecast type: BECOMING: Conditions expected to become as follows by 0000 UTC 14 July 2020
Winds: variable direction winds at 2 MPH (2 knots; 1.0 m/s)
Visibility: 6 or more miles 10+ km)
Ceiling: unknown
Clouds: missing
Weather: NSW  (no significant weather)
Text: BECMG 1407/1409 03005KT
Forecast period: 0700 to 1800 UTC 14 July 2020
Forecast type: BECOMING: Conditions expected to become as follows by 0900 UTC 14 July 2020
Winds: from the NNE (30 degrees) at 6 MPH (5 knots; 2.6 m/s)
Visibility: 6 or more miles 10+ km)
Ceiling: unknown
Clouds: missing
Weather: NSW  (no significant weather)
Text: TEMPO 1407/1414 9999 FEW040
Forecast period: 0700 to 1400 UTC 14 July 2020
Forecast type: TEMPORARY: The following changes expected for less than half the time period
Visibility: 6 or more miles 10+ km)
Ceiling: at least 12,000 feet AGL
Clouds: few clouds at 4000 feet AGL
Weather: no significant weather forecast for this period